Smyrna Airport
KMQY : now visible

Airfield :











YOU CAN JOIN US ON...

 
LOGIN :

Register | Disclaimer

   EN    FR    IT 

 









Legend :    VFR   Marginal VFR   IFR   Intensive IFR   Very Intensive IFR
Visi :
Ceiling :
>= 8 km
>= 3000ft
5 to 8 km
1000 to 3000 ft
1500m to 5 km
500 to 1000 ft
800 to 1500m
200 to 500 ft
< 800m
< 200 ft
Symbols :   Thunderstorms  Fog  Heavy snow  Heavy precipitations  Wind > 20 kt






- Airport Elevation : 543 ft


KMQY - Smyrna

CURRENT METAR :
  • 011756Z 33011G14KT 10SM BKN038 12/03 A3007 RMK AO2 SLP189 6//// T01220033 10122 20044 58001 PNO $

EXPIRED METARs :
  • 011656Z 32008KT 10SM BKN034 11/03 A3008 RMK AO2 SLP193 T01110033 PNO $
  • 011556Z 01009KT 10SM BKN030 10/03 A3008 RMK AO2 SLP193 T01000033 PNO $

TAF KMQY
Valid from the 01 at 18:00 until the 02 at 18:00 UTC


011720Z 0118/0218 36008KT P6SM SCT070
TEMPO 0118/0120 BKN035
FM020000 02005KT P6SM FEW250
FM021700 05005KT P6SM FEW250



MET'MAP, your aeronautical weather chart ! - Copyright ORBIFLY December 2007 - Disclaimer

ORBIFLY MET'MAP TEAM :

Programming & Development : Alexandra Zaïnal
Concept & original design : Baudouin d'Aumeries
Assistance for programming : Marc-Olivier Méhu
Technical & hardware support : Manuel Goepfert

Contact : metmap@orbifly.com




SOURCES & CREDITS :

   NOAA       Earth
Advisory